Latest Coastal Weather Observations for Yeppoon

IDQ60701

Issued at 9:25 pm EST Friday 24 October 2014 (issued every 10 minutes, with the page automatically refreshed every 10 minutes)

About coastal observations | Map of coastal stations | Coastal observations for QLD | Marine services | Other Formats
Station Details ID: 033294 Name: YEPPOON THE ESPLANADE Lat: -23.14 Lon: 150.75 Height: 5.5 m
Data from the previous 72 hours. | See also: Recent months at Yeppoon
Date/Time
EST
Temp

°C
Wind Pressure Rain
since 9am
mm
Weather Cloud Vis
km
Sea
Height
m
Swell
Dir
 
Speed
knots
Gust
knots
hPa Trend Height
m
Period
s
Dir
24/09:00pm 22.1 ENE 11 15 1021.5 - 0.0 - - - - - - -
24/08:30pm 22.0 ENE 10 14 1021.3 - 0.0 - - - - - - -
24/08:00pm 22.0 ENE 9 13 1021.1 - 0.0 - - - - - - -
24/07:30pm 22.1 NE 10 13 1020.6 - 0.0 - - - - - - -
24/07:00pm 22.0 ENE 9 13 1020.3 - 0.0 - - - - - - -
24/06:30pm 22.1 ENE 9 12 1019.9 - 0.0 - - - - - - -
24/06:00pm 22.2 ENE 9 12 1019.5 - 0.0 - - - - - - -
24/05:30pm 22.5 ENE 10 13 1019.2 - 0.0 - - - - - - -
24/05:00pm 22.9 ENE 10 13 1018.9 - 0.0 - - - - - - -
24/04:30pm 23.0 ENE 11 15 1018.8 - 0.0 - - - - - - -
24/04:00pm 23.4 ENE 11 15 1018.9 - 0.0 - - - - - - -
24/03:30pm 23.7 ENE 9 12 1019.2 - 0.0 - - - - - - -
24/03:00pm 24.2 ENE 9 12 1019.4 - 0.0 - - - - - - -
24/02:30pm 24.4 ENE 8 11 1019.6 - 0.0 - - - - - - -
24/02:00pm 24.5 ENE 8 11 1020.0 - 0.0 - - - - - - -
24/01:30pm 24.6 E 8 11 1020.3 - 0.0 - - - - - - -
24/01:00pm 24.7 E 9 12 1020.6 - 0.0 - - - - - - -
24/12:30pm 24.6 E 8 11 1021.0 - 0.0 - - - - - - -
24/12:00pm 24.5 E 8 11 1021.4 - 0.0 - - - - - - -
24/11:30am 24.6 E 7 9 1021.6 - 0.0 - - - - - - -
24/11:00am 24.8 E 7 9 1021.8 - 0.0 - - - - - - -
24/10:30am 24.7 E 8 10 1021.8 - 0.0 - - - - - - -
24/10:00am 24.2 E 7 11 1021.9 - 0.0 - - - - - - -
24/09:30am 24.4 E 6 8 1021.9 - 0.0 - - - - - - -
24/09:00am 24.0 E 7 9 1021.7 - 0.0 - - - - - - -
24/08:30am 24.1 E 6 8 1021.7 - 0.0 - - - - - - -
24/08:00am 23.2 E 6 9 1021.4 - 0.0 - - - - - - -
24/07:30am 21.6 SSW 2 5 1021.1 - 0.0 - - - - - - -
24/07:00am 19.8 SW 4 5 1021.0 - 0.0 - - - - - - -
24/06:30am 17.9 W 5 6 1021.1 - 0.0 - - - - - - -
24/06:00am 16.2 W 6 6 1020.7 - 0.0 - - - - - - -
24/05:30am 15.5 W 6 8 1020.2 - 0.0 - - - - - - -
24/05:00am 16.9 W 2 7 1019.9 - 0.0 - - - - - - -
24/04:30am 20.5 ENE 7 11 1019.5 - 0.0 - - - - - - -
24/04:00am 20.4 ENE 6 9 1019.5 - 0.0 - - - - - - -
24/03:30am 20.8 ENE 6 9 1019.3 - 0.0 - - - - - - -
24/03:00am 20.9 ENE 7 9 1019.3 - 0.0 - - - - - - -
24/02:30am 21.0 E 8 11 1019.2 - 0.0 - - - - - - -
24/02:00am 21.1 ENE 7 9 1019.5 - 0.0 - - - - - - -
24/01:30am 21.1 ENE 5 9 1020.3 - 0.0 - - - - - - -
24/01:00am 21.2 ENE 7 11 1020.5 - 0.0 - - - - - - -
24/12:30am 21.3 NE 9 11 1020.5 - 0.0 - - - - - - -
24/12:00am 21.3 NE 8 10 1020.8 - 0.0 - - - - - - -
 
Date/Time
EST
Temp

°C
Wind Pressure Rain
since 9am
mm
Weather Cloud Vis
km
Sea
Height
m
Swell
Dir
 
Speed
knots
Gust
knots
hPa Trend Height
m
Period
s
Dir
23/11:30pm 21.5 NE 9 11 1020.9 - 0.0 - - - - - - -
23/11:00pm 21.6 NE 9 12 1021.1 - 0.0 - - - - - - -
23/10:30pm 21.7 NE 9 11 1021.3 - 0.0 - - - - - - -
23/10:00pm 21.7 NE 10 12 1021.3 - 0.0 - - - - - - -
23/09:30pm 21.9 NE 10 14 1021.1 - 0.0 - - - - - - -
23/09:00pm 21.8 ENE 10 14 1020.8 - 0.0 - - - - - - -
23/08:30pm 21.8 NE 12 15 1020.4 - 0.0 - - - - - - -
23/08:00pm 21.9 ENE 9 13 1020.0 - 0.0 - - - - - - -
23/07:30pm 21.9 NE 11 14 1019.6 - 0.0 - - - - - - -
23/07:00pm 22.0 ENE 11 14 1019.3 - 0.0 - - - - - - -
23/06:30pm 22.1 NE 11 15 1018.9 - 0.0 - - - - - - -
23/06:00pm 22.0 NE 11 13 1018.7 - 0.0 - - - - - - -
23/05:30pm 22.4 NE 12 15 1018.6 - 0.0 - - - - - - -
23/05:00pm 22.6 ENE 10 14 1018.5 - 0.0 - - - - - - -
23/04:30pm 22.7 ENE 11 15 1018.2 - 0.0 - - - - - - -
23/04:00pm 23.1 ENE 10 13 1018.1 - 0.0 - - - - - - -
23/03:30pm 23.5 NE 11 14 1018.0 - 0.0 - - - - - - -
23/03:00pm 23.3 NE 14 17 1018.1 - 0.0 - - - - - - -
23/02:30pm 24.1 E 10 15 1018.5 - 0.0 - - - - - - -
23/02:00pm 24.2 E 9 13 1018.8 - 0.0 - - - - - - -
23/01:30pm 24.0 ENE 10 14 1018.9 - 0.0 - - - - - - -
23/01:00pm 24.8 E 9 11 1019.2 - 0.0 - - - - - - -
23/12:30pm 24.6 E 10 13 1019.7 - 0.0 - - - - - - -
23/12:00pm 24.3 E 10 13 1019.9 - 0.0 - - - - - - -
23/11:30am 24.3 E 10 13 1020.4 - 0.0 - - - - - - -
23/11:00am 24.1 E 10 13 1020.7 - 0.0 - - - - - - -
23/10:30am 23.8 E 11 16 1021.1 - 0.0 - - - - - - -
23/10:00am 23.8 ESE 9 13 1021.4 - 0.0 - - - - - - -
23/09:30am 23.4 ESE 9 14 1021.5 - 0.0 - - - - - - -
23/09:00am 23.3 ESE 9 14 1021.5 - 0.0 - - - - - - -
23/08:30am 22.8 SE 9 14 1021.7 - 0.0 - - - - - - -
23/08:00am 21.8 SE 9 13 1021.6 - 0.0 - - - - - - -
23/07:30am 21.1 SSE 8 12 1021.5 - 0.0 - - - - - - -
23/07:00am 20.2 S 7 11 1021.3 - 0.0 - - - - - - -
23/06:30am 18.7 S 7 10 1021.2 - 0.0 - - - - - - -
23/06:00am 18.0 S 7 10 1021.0 - 0.0 - - - - - - -
23/05:30am 18.1 S 7 8 1020.7 - 0.0 - - - - - - -
23/05:00am 19.6 SSE 6 10 1020.7 - 0.0 - - - - - - -
23/04:30am 20.9 E 8 12 1020.2 - 0.0 - - - - - - -
23/04:00am 20.8 E 10 14 1020.1 - 0.0 - - - - - - -
23/03:30am 20.9 E 9 15 1020.0 - 0.0 - - - - - - -
23/03:00am 21.0 E 10 15 1020.1 - 0.0 - - - - - - -
23/02:30am 20.9 E 10 13 1020.3 - 0.0 - - - - - - -
23/02:00am 21.0 E 10 15 1020.5 - 0.0 - - - - - - -
23/01:30am 21.1 E 10 13 1020.8 - 0.0 - - - - - - -
23/01:00am 21.2 ESE 10 15 1021.2 - 0.0 - - - - - - -
23/12:30am 21.3 ESE 10 15 1021.5 - 0.0 - - - - - - -
23/12:00am 21.4 E 11 15 1021.8 - 0.0 - - - - - - -
 
Date/Time
EST
Temp

°C
Wind Pressure Rain
since 9am
mm
Weather Cloud Vis
km
Sea
Height
m
Swell
Dir
 
Speed
knots
Gust
knots
hPa Trend Height
m
Period
s
Dir
22/11:30pm 21.6 E 11 16 1022.0 - 0.0 - - - - - - -
22/11:00pm 21.8 E 13 17 1022.1 - 0.0 - - - - - - -
22/10:30pm 21.9 E 12 16 1022.1 - 0.0 - - - - - - -
22/10:00pm 21.9 E 13 18 1022.0 - 0.0 - - - - - - -
22/09:30pm 21.9 E 13 18 1021.9 - 0.0 - - - - - - -
22/09:00pm 22.0 E 13 18 1021.9 - 0.0 - - - - - - -
22/08:30pm 22.1 E 13 17 1021.5 - 0.0 - - - - - - -
22/08:00pm 22.2 E 12 18 1021.4 - 0.0 - - - - - - -
22/07:30pm 22.2 E 12 16 1021.2 - 0.0 - - - - - - -
22/07:00pm 22.3 E 12 16 1021.1 - 0.0 - - - - - - -
22/06:30pm 22.3 E 13 18 1020.8 - 0.0 - - - - - - -
22/06:00pm 22.5 E 14 18 1020.5 - 0.0 - - - - - - -
22/05:30pm 22.8 E 13 17 1020.4 - 0.0 - - - - - - -
22/05:00pm 23.4 E 13 17 1020.2 - 0.0 - - - - - - -
22/04:30pm 23.7 E 13 19 1020.0 - 0.0 - - - - - - -
22/04:00pm 23.9 E 13 17 1019.9 - 0.0 - - - - - - -
22/03:30pm 24.1 E 14 19 1019.7 - 0.0 - - - - - - -
22/03:00pm 24.1 E 14 18 1019.9 - 0.0 - - - - - - -
22/02:30pm 24.1 E 13 18 1020.1 - 0.0 - - - - - - -
22/02:00pm 24.3 E 15 20 1020.6 - 0.0 - - - - - - -
22/01:30pm 24.0 E 14 19 1020.9 - 0.0 - - - - - - -
22/01:00pm 24.1 E 14 19 1021.2 - 0.0 - - - - - - -
22/12:30pm 24.3 E 15 20 1021.6 - 0.0 - - - - - - -
22/12:00pm 24.1 E 15 19 1022.1 - 0.0 - - - - - - -
22/11:30am 23.8 E 13 17 1022.6 - 0.0 - - - - - - -
22/11:00am 23.7 E 12 18 1022.8 - 0.0 - - - - - - -
22/10:30am 24.6 E 14 19 1023.1 - 0.0 - - - - - - -
22/10:00am 23.9 ESE 13 20 1023.2 - 0.0 - - - - - - -
22/09:30am 23.9 ESE 12 18 1023.4 - 0.0 - - - - - - -
22/09:00am 23.4 E 11 15 1023.4 - 0.0 - - - - - - -
22/08:30am 23.5 E 8 11 1023.6 - 0.0 - - - - - - -
22/08:00am 22.2 SE 11 15 1023.2 - 0.0 - - - - - - -
22/07:30am 22.1 SE 12 19 1023.0 - 0.0 - - - - - - -
22/07:00am 21.5 SSE 11 15 1022.8 - 0.0 - - - - - - -
22/06:30am 21.3 SSE 9 13 1022.6 - 0.0 - - - - - - -
22/06:00am 20.8 SSE 7 12 1022.3 - 0.0 - - - - - - -
22/05:30am 20.6 SSE 9 12 1022.0 - 0.0 - - - - - - -
22/05:00am 21.1 SE 11 17 1021.6 - 0.0 - - - - - - -
22/04:30am 20.9 SE 9 14 1021.4 - 0.0 - - - - - - -
22/04:00am 21.6 E 14 20 1021.3 - 0.0 - - - - - - -
22/03:30am 21.8 E 13 18 1021.4 - 0.0 - - - - - - -
22/03:00am 21.7 E 11 17 1021.6 - 0.0 - - - - - - -
22/02:30am 21.6 E 12 19 1021.9 - 0.0 - - - - - - -
22/02:00am 21.6 E 12 16 1022.0 - 0.0 - - - - - - -
22/01:30am 21.6 E 11 17 1022.4 - 0.0 - - - - - - -
22/01:00am 21.7 ESE 11 15 1022.8 - 0.0 - - - - - - -
22/12:30am 21.8 E 12 18 1023.3 - 0.0 - - - - - - -
22/12:00am 21.9 E 14 19 1023.6 - 0.0 - - - - - - -
 
Date/Time
EST
Temp

°C
Wind Pressure Rain
since 9am
mm
Weather Cloud Vis
km
Sea
Height
m
Swell
Dir
 
Speed
knots
Gust
knots
hPa Trend Height
m
Period
s
Dir
21/11:30pm 21.9 E 15 21 1023.9 - 0.0 - - - - - - -
21/11:00pm 22.0 E 15 19 1024.1 - 0.0 - - - - - - -
21/10:30pm 22.0 E 14 22 1024.3 - 0.0 - - - - - - -
21/10:00pm 22.0 E 16 21 1024.5 - 0.0 - - - - - - -
21/09:30pm 22.1 E 16 23 1024.5 - 0.0 - - - - - - -

Other Formats:

Comma delimited format used in spreadsheet applications
http://www.bom.gov.au/fwo/IDQ60701/IDQ60701.94373.axf

JavaScript Object Notation format (JSON) in row-major order
http://www.bom.gov.au/fwo/IDQ60701/IDQ60701.94373.json